sensor_id;sensor_type;location;lat;lon;timestamp;pressure;altitude;pressure_sealevel;temperature;humidity
64668;BME280;51077;42.716;23.344;2024-01-30T00:00:54;97330.63;;;3.50;45.63
64668;BME280;51077;42.716;23.344;2024-01-30T00:03:19;97331.81;;;3.49;45.35
64668;BME280;51077;42.716;23.344;2024-01-30T00:05:44;97337.63;;;3.48;45.32
64668;BME280;51077;42.716;23.344;2024-01-30T00:08:10;97335.75;;;3.45;45.43
64668;BME280;51077;42.716;23.344;2024-01-30T00:10:35;97329.56;;;3.44;45.41
64668;BME280;51077;42.716;23.344;2024-01-30T00:13:01;97332.28;;;3.44;45.41
64668;BME280;51077;42.716;23.344;2024-01-30T00:15:27;97340.00;;;3.46;45.21
64668;BME280;51077;42.716;23.344;2024-01-30T00:17:53;97338.47;;;3.45;45.70
64668;BME280;51077;42.716;23.344;2024-01-30T00:20:19;97345.47;;;3.42;45.66
64668;BME280;51077;42.716;23.344;2024-01-30T00:22:44;97348.63;;;3.41;45.67
64668;BME280;51077;42.716;23.344;2024-01-30T00:25:09;97338.94;;;3.40;45.58
64668;BME280;51077;42.716;23.344;2024-01-30T00:27:35;97335.09;;;3.37;45.39
64668;BME280;51077;42.716;23.344;2024-01-30T00:30:01;97334.72;;;3.35;45.43
64668;BME280;51077;42.716;23.344;2024-01-30T00:32:26;97342.88;;;3.35;45.50
64668;BME280;51077;42.716;23.344;2024-01-30T00:34:51;97350.69;;;3.33;45.54
64668;BME280;51077;42.716;23.344;2024-01-30T00:37:17;97339.06;;;3.33;45.45
64668;BME280;51077;42.716;23.344;2024-01-30T00:39:42;97342.19;;;3.31;45.46
64668;BME280;51077;42.716;23.344;2024-01-30T00:42:08;97339.47;;;3.31;45.55
64668;BME280;51077;42.716;23.344;2024-01-30T00:44:36;97341.41;;;3.31;45.45
64668;BME280;51077;42.716;23.344;2024-01-30T00:47:05;97335.22;;;3.30;45.51
64668;BME280;51077;42.716;23.344;2024-01-30T00:49:31;97339.13;;;3.29;45.58
64668;BME280;51077;42.716;23.344;2024-01-30T00:51:56;97339.13;;;3.29;45.75
64668;BME280;51077;42.716;23.344;2024-01-30T00:54:21;97335.22;;;3.30;45.34
64668;BME280;51077;42.716;23.344;2024-01-30T00:56:47;97330.97;;;3.29;45.17
64668;BME280;51077;42.716;23.344;2024-01-30T00:59:12;97337.59;;;3.28;45.63
64668;BME280;51077;42.716;23.344;2024-01-30T01:01:38;97333.69;;;3.29;45.68
64668;BME280;51077;42.716;23.344;2024-01-30T01:04:03;97337.22;;;3.26;45.75
64668;BME280;51077;42.716;23.344;2024-01-30T01:06:29;97339.16;;;3.25;45.85
64668;BME280;51077;42.716;23.344;2024-01-30T01:08:54;97332.63;;;3.23;45.72
64668;BME280;51077;42.716;23.344;2024-01-30T01:11:19;97335.34;;;3.23;45.95
64668;BME280;51077;42.716;23.344;2024-01-30T01:13:45;97336.50;;;3.22;45.43
64668;BME280;51077;42.716;23.344;2024-01-30T01:16:10;97341.59;;;3.20;45.45
64668;BME280;51077;42.716;23.344;2024-01-30T01:18:36;97343.13;;;3.21;45.57
64668;BME280;51077;42.716;23.344;2024-01-30T01:21:01;97347.44;;;3.18;45.55
64668;BME280;51077;42.716;23.344;2024-01-30T01:23:27;97343.97;;;3.18;45.71
64668;BME280;51077;42.716;23.344;2024-01-30T01:25:52;97346.31;;;3.16;45.62
64668;BME280;51077;42.716;23.344;2024-01-30T01:28:17;97343.59;;;3.16;45.76
64668;BME280;51077;42.716;23.344;2024-01-30T01:30:43;97337.41;;;3.15;45.59
64668;BME280;51077;42.716;23.344;2024-01-30T01:33:09;97340.13;;;3.15;45.51
64668;BME280;51077;42.716;23.344;2024-01-30T01:35:35;97339.34;;;3.15;45.81
64668;BME280;51077;42.716;23.344;2024-01-30T01:38:00;97340.94;;;3.12;45.59
64668;BME280;51077;42.716;23.344;2024-01-30T01:40:27;97345.59;;;3.12;45.51
64668;BME280;51077;42.716;23.344;2024-01-30T01:42:53;97346.00;;;3.10;45.93
64668;BME280;51077;42.716;23.344;2024-01-30T01:45:20;97343.69;;;3.09;45.95
64668;BME280;51077;42.716;23.344;2024-01-30T01:47:55;97342.53;;;3.10;45.66
64668;BME280;51077;42.716;23.344;2024-01-30T01:50:21;97341.41;;;3.07;45.95
64668;BME280;51077;42.716;23.344;2024-01-30T01:52:47;97340.63;;;3.07;45.96
64668;BME280;51077;42.716;23.344;2024-01-30T01:55:14;97332.53;;;3.03;45.90
64668;BME280;51077;42.716;23.344;2024-01-30T01:57:41;97340.25;;;3.05;45.90
64668;BME280;51077;42.716;23.344;2024-01-30T02:00:08;97341.09;;;3.01;45.93
64668;BME280;51077;42.716;23.344;2024-01-30T02:02:36;97350.78;;;3.02;45.63
64668;BME280;51077;42.716;23.344;2024-01-30T02:05:02;97346.16;;;2.99;46.19
64668;BME280;51077;42.716;23.344;2024-01-30T02:07:28;97338.84;;;2.96;45.81
64668;BME280;51077;42.716;23.344;2024-01-30T02:09:54;97349.72;;;2.96;46.03
64668;BME280;51077;42.716;23.344;2024-01-30T02:12:20;97353.94;;;2.97;46.12
64668;BME280;51077;42.716;23.344;2024-01-30T02:14:46;97357.06;;;2.96;45.93
64668;BME280;51077;42.716;23.344;2024-01-30T02:17:12;97348.16;;;2.95;45.95
64668;BME280;51077;42.716;23.344;2024-01-30T02:19:39;97349.72;;;2.96;46.09
64668;BME280;51077;42.716;23.344;2024-01-30T02:22:04;97347.75;;;2.97;46.18
64668;BME280;51077;42.716;23.344;2024-01-30T02:24:30;97350.81;;;2.99;45.74
64668;BME280;51077;42.716;23.344;2024-01-30T02:26:55;97344.59;;;3.02;45.81
64668;BME280;51077;42.716;23.344;2024-01-30T02:29:21;97345.00;;;3.00;46.01
64668;BME280;51077;42.716;23.344;2024-01-30T02:31:46;97341.44;;;3.03;45.73
64668;BME280;51077;42.716;23.344;2024-01-30T02:34:12;97344.88;;;3.08;45.62
64668;BME280;51077;42.716;23.344;2024-01-30T02:36:37;97344.47;;;3.09;45.66
64668;BME280;51077;42.716;23.344;2024-01-30T02:39:03;97348.72;;;3.10;45.56
64668;BME280;51077;42.716;23.344;2024-01-30T02:41:28;97346.34;;;3.12;45.38
64668;BME280;51077;42.716;23.344;2024-01-30T02:43:54;97348.66;;;3.14;45.69
64668;BME280;51077;42.716;23.344;2024-01-30T02:46:19;97354.81;;;3.18;45.39
64668;BME280;51077;42.716;23.344;2024-01-30T02:48:45;97348.97;;;3.19;45.51
64668;BME280;51077;42.716;23.344;2024-01-30T02:51:10;97345.84;;;3.21;45.27
64668;BME280;51077;42.716;23.344;2024-01-30T02:53:35;97345.00;;;3.24;45.32
64668;BME280;51077;42.716;23.344;2024-01-30T02:56:02;97349.25;;;3.25;45.31
64668;BME280;51077;42.716;23.344;2024-01-30T02:58:28;97349.63;;;3.27;45.28
64668;BME280;51077;42.716;23.344;2024-01-30T03:00:53;97352.34;;;3.27;45.27
64668;BME280;51077;42.716;23.344;2024-01-30T03:03:19;97348.44;;;3.28;45.19
64668;BME280;51077;42.716;23.344;2024-01-30T03:05:45;97341.47;;;3.27;45.12
64668;BME280;51077;42.716;23.344;2024-01-30T03:08:10;97337.59;;;3.28;45.14
64668;BME280;51077;42.716;23.344;2024-01-30T03:10:35;97337.59;;;3.28;45.27
64668;BME280;51077;42.716;23.344;2024-01-30T03:13:01;97339.88;;;3.30;45.15
64668;BME280;51077;42.716;23.344;2024-01-30T03:15:26;97338.28;;;3.32;45.28
64668;BME280;51077;42.716;23.344;2024-01-30T03:17:53;97336.78;;;3.31;45.05
64668;BME280;51077;42.716;23.344;2024-01-30T03:20:18;97334.06;;;3.31;45.16
64668;BME280;51077;42.716;23.344;2024-01-30T03:22:44;97339.81;;;3.33;44.95
64668;BME280;51077;42.716;23.344;2024-01-30T03:25:10;97335.91;;;3.34;45.26
64668;BME280;51077;42.716;23.344;2024-01-30T03:27:35;97338.63;;;3.34;45.06
64668;BME280;51077;42.716;23.344;2024-01-30T03:30:01;97335.59;;;3.32;45.01
64668;BME280;51077;42.716;23.344;2024-01-30T03:32:27;97331.69;;;3.33;44.99
64668;BME280;51077;42.716;23.344;2024-01-30T03:34:53;97326.19;;;3.37;45.23
64668;BME280;51077;42.716;23.344;2024-01-30T03:37:18;97326.97;;;3.37;44.96
64668;BME280;51077;42.716;23.344;2024-01-30T03:39:43;97333.91;;;3.38;45.11
64668;BME280;51077;42.716;23.344;2024-01-30T03:42:09;97329.25;;;3.39;45.05
64668;BME280;51077;42.716;23.344;2024-01-30T03:44:34;97321.53;;;3.37;45.01
64668;BME280;51077;42.716;23.344;2024-01-30T03:47:00;97326.16;;;3.40;45.01
64668;BME280;51077;42.716;23.344;2024-01-30T03:49:25;97317.25;;;3.40;44.70
64668;BME280;51077;42.716;23.344;2024-01-30T03:51:51;97323.34;;;3.44;44.93
64668;BME280;51077;42.716;23.344;2024-01-30T03:54:16;97319.94;;;3.40;44.51
64668;BME280;51077;42.716;23.344;2024-01-30T03:56:41;97326.16;;;3.40;44.46
64668;BME280;51077;42.716;23.344;2024-01-30T03:59:07;97316.44;;;3.39;44.81
64668;BME280;51077;42.716;23.344;2024-01-30T04:01:32;97314.16;;;3.38;44.52
64668;BME280;51077;42.716;23.344;2024-01-30T04:03:58;97311.88;;;3.36;44.80
64668;BME280;51077;42.716;23.344;2024-01-30T04:06:24;97311.50;;;3.34;44.54
64668;BME280;51077;42.716;23.344;2024-01-30T04:08:49;97315.06;;;3.31;44.65
64668;BME280;51077;42.716;23.344;2024-01-30T04:11:15;97306.22;;;3.27;44.47
64668;BME280;51077;42.716;23.344;2024-01-30T04:13:40;97310.06;;;3.26;44.45
64668;BME280;51077;42.716;23.344;2024-01-30T04:16:08;97314.34;;;3.27;44.47
64668;BME280;51077;42.716;23.344;2024-01-30T04:18:33;97316.69;;;3.25;43.95
64668;BME280;51077;42.716;23.344;2024-01-30T04:20:59;97324.13;;;3.21;44.77
64668;BME280;51077;42.716;23.344;2024-01-30T04:23:24;97319.88;;;3.20;44.27
64668;BME280;51077;42.716;23.344;2024-01-30T04:25:50;97321.88;;;3.16;44.78
64668;BME280;51077;42.716;23.344;2024-01-30T04:28:15;97328.88;;;3.13;44.91
64668;BME280;51077;42.716;23.344;2024-01-30T04:30:41;97336.25;;;3.13;44.52
64668;BME280;51077;42.716;23.344;2024-01-30T04:33:06;97333.22;;;3.11;44.58
64668;BME280;51077;42.716;23.344;2024-01-30T04:35:32;97331.31;;;3.08;44.82
64668;BME280;51077;42.716;23.344;2024-01-30T04:37:57;97325.53;;;3.06;44.95
64668;BME280;51077;42.716;23.344;2024-01-30T04:40:23;97330.59;;;3.03;44.83
64668;BME280;51077;42.716;23.344;2024-01-30T04:42:48;97334.16;;;3.00;44.78
64668;BME280;51077;42.716;23.344;2024-01-30T04:45:14;97338.78;;;3.00;45.00
64668;BME280;51077;42.716;23.344;2024-01-30T04:47:39;97334.97;;;2.97;44.87
64668;BME280;51077;42.716;23.344;2024-01-30T04:50:08;97334.59;;;2.95;44.81
64668;BME280;51077;42.716;23.344;2024-01-30T04:52:34;97339.66;;;2.93;45.01
64668;BME280;51077;42.716;23.344;2024-01-30T04:55:00;97345.50;;;2.92;44.64
64668;BME280;51077;42.716;23.344;2024-01-30T04:57:25;97349.00;;;2.92;44.98
64668;BME280;51077;42.716;23.344;2024-01-30T04:59:50;97354.03;;;2.90;44.87
64668;BME280;51077;42.716;23.344;2024-01-30T05:02:16;97347.09;;;2.89;44.61
64668;BME280;51077;42.716;23.344;2024-01-30T05:04:41;97348.66;;;2.87;44.85
64668;BME280;51077;42.716;23.344;2024-01-30T05:07:07;97347.91;;;2.86;44.95
64668;BME280;51077;42.716;23.344;2024-01-30T05:09:32;97350.63;;;2.86;44.92
64668;BME280;51077;42.716;23.344;2024-01-30T05:11:59;97354.56;;;2.82;45.05
64668;BME280;51077;42.716;23.344;2024-01-30T05:14:25;97349.91;;;2.82;44.67
64668;BME280;51077;42.716;23.344;2024-01-30T05:16:50;97344.50;;;2.78;45.05
64668;BME280;51077;42.716;23.344;2024-01-30T05:19:16;97358.16;;;2.75;45.17
64668;BME280;51077;42.716;23.344;2024-01-30T05:21:42;97354.59;;;2.78;44.95
64668;BME280;51077;42.716;23.344;2024-01-30T05:24:08;97348.47;;;2.74;45.23
64668;BME280;51077;42.716;23.344;2024-01-30T05:26:35;97352.72;;;2.75;44.78
64668;BME280;51077;42.716;23.344;2024-01-30T05:29:00;97353.13;;;2.73;45.33
64668;BME280;51077;42.716;23.344;2024-01-30T05:31:25;97363.19;;;2.73;45.07
64668;BME280;51077;42.716;23.344;2024-01-30T05:33:52;97346.22;;;2.69;45.11
64668;BME280;51077;42.716;23.344;2024-01-30T05:36:17;97348.91;;;2.69;45.10
64668;BME280;51077;42.716;23.344;2024-01-30T05:38:43;97355.88;;;2.70;45.34
64668;BME280;51077;42.716;23.344;2024-01-30T05:41:08;97358.22;;;2.68;45.05
64668;BME280;51077;42.716;23.344;2024-01-30T05:43:34;97357.88;;;2.66;45.34
64668;BME280;51077;42.716;23.344;2024-01-30T05:46:00;97359.41;;;2.67;45.21
64668;BME280;51077;42.716;23.344;2024-01-30T05:48:25;97360.94;;;2.68;45.24
64668;BME280;51077;42.716;23.344;2024-01-30T05:50:51;97356.28;;;2.68;45.15
64668;BME280;51077;42.716;23.344;2024-01-30T05:53:16;97354.75;;;2.67;45.34
64668;BME280;51077;42.716;23.344;2024-01-30T05:55:42;97356.25;;;2.72;44.85
64668;BME280;51077;42.716;23.344;2024-01-30T05:58:07;97356.19;;;2.75;45.19
64668;BME280;51077;42.716;23.344;2024-01-30T06:00:33;97358.03;;;2.82;44.91
64668;BME280;51077;42.716;23.344;2024-01-30T06:02:58;97356.75;;;2.90;44.75
64668;BME280;51077;42.716;23.344;2024-01-30T06:05:23;97363.16;;;3.03;44.19
64668;BME280;51077;42.716;23.344;2024-01-30T06:07:49;97360.28;;;3.14;44.37
64668;BME280;51077;42.716;23.344;2024-01-30T06:10:14;97366.31;;;3.25;44.19
64668;BME280;51077;42.716;23.344;2024-01-30T06:12:40;97366.78;;;3.44;43.79
64668;BME280;51077;42.716;23.344;2024-01-30T06:15:06;97367.28;;;3.62;43.60
64668;BME280;51077;42.716;23.344;2024-01-30T06:17:32;97364.59;;;3.82;43.15
64668;BME280;51077;42.716;23.344;2024-01-30T06:19:57;97374.66;;;4.05;43.13
64668;BME280;51077;42.716;23.344;2024-01-30T06:22:23;97373.84;;;4.28;42.70
64668;BME280;51077;42.716;23.344;2024-01-30T06:24:48;97369.34;;;4.58;42.27
64668;BME280;51077;42.716;23.344;2024-01-30T06:27:14;97364.06;;;4.87;41.84
64668;BME280;51077;42.716;23.344;2024-01-30T06:29:41;97366.41;;;5.21;41.18
64668;BME280;51077;42.716;23.344;2024-01-30T06:32:07;97363.25;;;5.55;40.93
64668;BME280;51077;42.716;23.344;2024-01-30T06:34:33;97363.72;;;5.99;40.42
64668;BME280;51077;42.716;23.344;2024-01-30T06:36:58;97355.88;;;6.01;40.45
64668;BME280;51077;42.716;23.344;2024-01-30T06:39:24;97368.06;;;5.96;40.49
64668;BME280;51077;42.716;23.344;2024-01-30T06:41:50;97363.47;;;5.93;40.54
64668;BME280;51077;42.716;23.344;2024-01-30T06:44:15;97364.56;;;5.96;40.43
64668;BME280;51077;42.716;23.344;2024-01-30T06:46:41;97362.44;;;6.03;40.48
64668;BME280;51077;42.716;23.344;2024-01-30T06:49:06;97361.97;;;6.34;39.64
64668;BME280;51077;42.716;23.344;2024-01-30T06:51:31;97365.78;;;7.04;38.70
64668;BME280;51077;42.716;23.344;2024-01-30T06:53:57;97366.44;;;7.94;37.42
64668;BME280;51077;42.716;23.344;2024-01-30T06:56:22;97377.31;;;8.41;36.65
64668;BME280;51077;42.716;23.344;2024-01-30T06:58:49;97386.44;;;8.69;36.90
64668;BME280;51077;42.716;23.344;2024-01-30T07:01:14;97379.31;;;9.03;36.26
64668;BME280;51077;42.716;23.344;2024-01-30T07:03:40;97383.59;;;9.44;35.97
64668;BME280;51077;42.716;23.344;2024-01-30T07:06:05;97381.22;;;9.83;35.58
64668;BME280;51077;42.716;23.344;2024-01-30T07:08:31;97386.75;;;10.20;35.00
64668;BME280;51077;42.716;23.344;2024-01-30T07:10:56;97379.13;;;10.51;34.54
64668;BME280;51077;42.716;23.344;2024-01-30T07:13:22;97373.00;;;10.84;34.33
64668;BME280;51077;42.716;23.344;2024-01-30T07:15:47;97377.47;;;11.15;33.97
64668;BME280;51077;42.716;23.344;2024-01-30T07:18:13;97383.44;;;11.46;33.53
64668;BME280;51077;42.716;23.344;2024-01-30T07:20:39;97375.59;;;11.78;33.07
64668;BME280;51077;42.716;23.344;2024-01-30T07:23:14;97381.81;;;12.12;32.90
64668;BME280;51077;42.716;23.344;2024-01-30T07:25:42;97383.03;;;12.49;32.67
64668;BME280;51077;42.716;23.344;2024-01-30T07:28:08;97377.09;;;12.80;32.14
64668;BME280;51077;42.716;23.344;2024-01-30T07:30:37;97375.63;;;13.15;31.75
64668;BME280;51077;42.716;23.344;2024-01-30T07:33:04;97377.66;;;13.49;31.58
64668;BME280;51077;42.716;23.344;2024-01-30T07:35:29;97375.66;;;13.85;31.17
64668;BME280;51077;42.716;23.344;2024-01-30T07:37:54;97372.06;;;14.20;31.05
64668;BME280;51077;42.716;23.344;2024-01-30T07:40:20;97379.41;;;14.49;30.49
64668;BME280;51077;42.716;23.344;2024-01-30T07:42:45;97385.94;;;14.72;29.87
64668;BME280;51077;42.716;23.344;2024-01-30T07:45:11;97380.16;;;15.01;29.69
64668;BME280;51077;42.716;23.344;2024-01-30T07:47:36;97375.88;;;15.32;29.42
64668;BME280;51077;42.716;23.344;2024-01-30T07:50:02;97369.28;;;15.61;29.30
64668;BME280;51077;42.716;23.344;2024-01-30T07:52:28;97368.97;;;15.91;28.93
64668;BME280;51077;42.716;23.344;2024-01-30T07:54:53;97369.59;;;16.23;28.68
64668;BME280;51077;42.716;23.344;2024-01-30T07:57:19;97372.47;;;16.56;28.62
64668;BME280;51077;42.716;23.344;2024-01-30T07:59:44;97371.75;;;16.84;28.30
64668;BME280;51077;42.716;23.344;2024-01-30T08:02:12;97370.28;;;17.11;27.87
64668;BME280;51077;42.716;23.344;2024-01-30T08:04:37;97368.22;;;17.40;27.48
64668;BME280;51077;42.716;23.344;2024-01-30T08:07:03;97371.97;;;17.65;27.66
64668;BME280;51077;42.716;23.344;2024-01-30T08:09:28;97368.16;;;17.90;27.34
64668;BME280;51077;42.716;23.344;2024-01-30T08:11:54;97376.13;;;18.16;27.03
64668;BME280;51077;42.716;23.344;2024-01-30T08:14:19;97371.44;;;18.41;26.97
64668;BME280;51077;42.716;23.344;2024-01-30T08:16:45;97369.06;;;18.62;25.62
64668;BME280;51077;42.716;23.344;2024-01-30T08:19:10;97370.97;;;18.84;25.35
64668;BME280;51077;42.716;23.344;2024-01-30T08:21:35;97381.94;;;19.06;25.39
64668;BME280;51077;42.716;23.344;2024-01-30T08:24:03;97373.41;;;19.29;25.02
64668;BME280;51077;42.716;23.344;2024-01-30T08:26:28;97370.66;;;19.53;24.94
64668;BME280;51077;42.716;23.344;2024-01-30T08:28:54;97371.19;;;19.76;24.56
64668;BME280;51077;42.716;23.344;2024-01-30T08:31:19;97375.53;;;19.96;23.94
64668;BME280;51077;42.716;23.344;2024-01-30T08:33:44;97381.59;;;20.19;24.12
64668;BME280;51077;42.716;23.344;2024-01-30T08:36:10;97374.47;;;20.43;23.80
64668;BME280;51077;42.716;23.344;2024-01-30T08:38:35;97375.16;;;20.68;23.65
64668;BME280;51077;42.716;23.344;2024-01-30T08:41:01;97380.34;;;20.96;23.64
64668;BME280;51077;42.716;23.344;2024-01-30T08:43:26;97371.06;;;21.20;23.00
64668;BME280;51077;42.716;23.344;2024-01-30T08:45:51;97377.28;;;21.45;22.55
64668;BME280;51077;42.716;23.344;2024-01-30T08:48:17;97368.19;;;21.71;22.49
64668;BME280;51077;42.716;23.344;2024-01-30T08:50:43;97375.50;;;22.00;22.47
64668;BME280;51077;42.716;23.344;2024-01-30T08:53:08;97380.22;;;22.32;22.01
64668;BME280;51077;42.716;23.344;2024-01-30T08:55:33;97375.00;;;22.63;21.80
64668;BME280;51077;42.716;23.344;2024-01-30T08:57:59;97374.16;;;22.89;21.60
64668;BME280;51077;42.716;23.344;2024-01-30T09:00:25;97382.50;;;22.68;21.58
64668;BME280;51077;42.716;23.344;2024-01-30T09:02:50;97380.66;;;22.36;21.24
64668;BME280;51077;42.716;23.344;2024-01-30T09:05:16;97387.56;;;21.95;21.20
64668;BME280;51077;42.716;23.344;2024-01-30T09:07:41;97389.97;;;21.46;21.54
64668;BME280;51077;42.716;23.344;2024-01-30T09:10:07;97387.38;;;21.16;21.33
64668;BME280;51077;42.716;23.344;2024-01-30T09:12:32;97379.50;;;21.33;21.62
64668;BME280;51077;42.716;23.344;2024-01-30T09:14:58;97383.28;;;21.36;21.48
64668;BME280;51077;42.716;23.344;2024-01-30T09:17:23;97375.06;;;21.56;21.41
64668;BME280;51077;42.716;23.344;2024-01-30T09:19:49;97377.31;;;21.84;21.16
64668;BME280;51077;42.716;23.344;2024-01-30T09:22:14;97382.63;;;22.15;20.74
64668;BME280;51077;42.716;23.344;2024-01-30T09:24:40;97387.66;;;22.43;20.74
64668;BME280;51077;42.716;23.344;2024-01-30T09:27:06;97379.78;;;22.75;20.36
64668;BME280;51077;42.716;23.344;2024-01-30T09:29:31;97374.41;;;23.12;19.91
64668;BME280;51077;42.716;23.344;2024-01-30T09:31:59;97369.69;;;23.48;19.83
64668;BME280;51077;42.716;23.344;2024-01-30T09:34:25;97370.31;;;23.83;19.44
64668;BME280;51077;42.716;23.344;2024-01-30T09:36:50;97373.50;;;24.16;19.22
64668;BME280;51077;42.716;23.344;2024-01-30T09:39:16;97363.19;;;24.47;19.13
64668;BME280;51077;42.716;23.344;2024-01-30T09:41:49;97357.69;;;24.77;18.70
64668;BME280;51077;42.716;23.344;2024-01-30T09:44:20;97354.50;;;24.89;18.80
64668;BME280;51077;42.716;23.344;2024-01-30T09:46:47;97360.38;;;24.47;18.66
64668;BME280;51077;42.716;23.344;2024-01-30T09:49:16;97356.38;;;23.98;18.80
64668;BME280;51077;42.716;23.344;2024-01-30T09:51:44;97349.66;;;23.44;18.97
64668;BME280;51077;42.716;23.344;2024-01-30T09:54:13;97352.19;;;22.93;19.20
64668;BME280;51077;42.716;23.344;2024-01-30T09:56:39;97351.69;;;22.47;19.26
64668;BME280;51077;42.716;23.344;2024-01-30T09:59:04;97348.31;;;22.14;19.27
64668;BME280;51077;42.716;23.344;2024-01-30T10:01:31;97349.72;;;21.94;19.40
64668;BME280;51077;42.716;23.344;2024-01-30T10:03:56;97345.50;;;21.61;19.84
64668;BME280;51077;42.716;23.344;2024-01-30T10:06:24;97348.69;;;21.39;19.77
64668;BME280;51077;42.716;23.344;2024-01-30T10:08:50;97341.63;;;21.19;20.00
64668;BME280;51077;42.716;23.344;2024-01-30T10:11:15;97344.50;;;21.00;19.82
64668;BME280;51077;42.716;23.344;2024-01-30T10:13:41;97341.56;;;20.92;19.98
64668;BME280;51077;42.716;23.344;2024-01-30T10:16:06;97336.78;;;20.74;20.23
64668;BME280;51077;42.716;23.344;2024-01-30T10:18:32;97341.41;;;20.52;20.17
64668;BME280;51077;42.716;23.344;2024-01-30T10:20:58;97337.03;;;20.38;20.29
64668;BME280;51077;42.716;23.344;2024-01-30T10:23:24;97341.91;;;20.13;20.26
64668;BME280;51077;42.716;23.344;2024-01-30T10:25:51;97338.94;;;19.87;20.24
64668;BME280;51077;42.716;23.344;2024-01-30T10:28:17;97329.81;;;19.86;20.38
64668;BME280;51077;42.716;23.344;2024-01-30T10:30:42;97334.16;;;20.25;20.02
64668;BME280;51077;42.716;23.344;2024-01-30T10:33:08;97330.75;;;20.70;19.88
64668;BME280;51077;42.716;23.344;2024-01-30T10:35:33;97338.63;;;21.17;19.60
64668;BME280;51077;42.716;23.344;2024-01-30T10:37:59;97335.06;;;21.62;19.17
64668;BME280;51077;42.716;23.344;2024-01-30T10:40:28;97339.38;;;21.63;19.44
64668;BME280;51077;42.716;23.344;2024-01-30T10:42:55;97340.22;;;21.44;19.02
64668;BME280;51077;42.716;23.344;2024-01-30T10:45:22;97325.19;;;21.47;19.26
64668;BME280;51077;42.716;23.344;2024-01-30T10:47:50;97325.19;;;21.74;18.97
64668;BME280;51077;42.716;23.344;2024-01-30T10:50:16;97331.53;;;22.14;18.76
64668;BME280;51077;42.716;23.344;2024-01-30T10:52:42;97332.59;;;22.58;18.39
64668;BME280;51077;42.716;23.344;2024-01-30T10:55:09;97321.66;;;23.02;18.05
64668;BME280;51077;42.716;23.344;2024-01-30T10:57:35;97312.44;;;22.94;18.29
64668;BME280;51077;42.716;23.344;2024-01-30T11:00:07;97314.16;;;22.97;17.99
64668;BME280;51077;42.716;23.344;2024-01-30T11:02:41;97312.97;;;23.35;17.59
64668;BME280;51077;42.716;23.344;2024-01-30T11:05:07;97308.94;;;23.72;17.40
64668;BME280;51077;42.716;23.344;2024-01-30T11:07:33;97304.75;;;23.94;17.30
64668;BME280;51077;42.716;23.344;2024-01-30T11:10:00;97297.03;;;24.23;17.16
64668;BME280;51077;42.716;23.344;2024-01-30T11:12:30;97294.53;;;24.63;16.91
64668;BME280;51077;42.716;23.344;2024-01-30T11:22:45;97292.50;;;24.20;16.93
64668;BME280;51077;42.716;23.344;2024-01-30T11:25:15;97293.28;;;23.84;17.06
64668;BME280;51077;42.716;23.344;2024-01-30T11:27:42;97283.81;;;23.38;17.43
64668;BME280;51077;42.716;23.344;2024-01-30T11:30:08;97287.22;;;22.94;17.49
64668;BME280;51077;42.716;23.344;2024-01-30T11:32:34;97283.56;;;22.99;17.41
64668;BME280;51077;42.716;23.344;2024-01-30T11:35:00;97285.50;;;22.70;17.68
64668;BME280;51077;42.716;23.344;2024-01-30T11:37:26;97286.59;;;22.33;18.20
64668;BME280;51077;42.716;23.344;2024-01-30T11:39:53;97284.28;;;22.11;18.19
64668;BME280;51077;42.716;23.344;2024-01-30T11:42:19;97273.69;;;21.69;18.43
64668;BME280;51077;42.716;23.344;2024-01-30T11:44:48;97284.19;;;21.23;18.52
64668;BME280;51077;42.716;23.344;2024-01-30T11:47:14;97284.03;;;21.02;18.60
64668;BME280;51077;42.716;23.344;2024-01-30T11:49:40;97280.59;;;20.96;18.71
64668;BME280;51077;42.716;23.344;2024-01-30T11:52:05;97277.06;;;20.96;18.50
64668;BME280;51077;42.716;23.344;2024-01-30T11:54:31;97282.09;;;20.97;18.59
64668;BME280;51077;42.716;23.344;2024-01-30T11:56:57;97274.84;;;20.75;18.70
64668;BME280;51077;42.716;23.344;2024-01-30T11:59:22;97272.41;;;20.85;18.80
64668;BME280;51077;42.716;23.344;2024-01-30T12:01:48;97269.81;;;20.74;18.64
64668;BME280;51077;42.716;23.344;2024-01-30T12:04:14;97258.81;;;21.08;18.69
64668;BME280;51077;42.716;23.344;2024-01-30T12:06:40;97256.41;;;21.44;18.35
64668;BME280;51077;42.716;23.344;2024-01-30T12:09:05;97241.75;;;21.78;18.26
64668;BME280;51077;42.716;23.344;2024-01-30T12:11:46;97244.28;;;22.16;17.85
64668;BME280;51077;42.716;23.344;2024-01-30T12:14:12;97243.31;;;22.47;17.67
64668;BME280;51077;42.716;23.344;2024-01-30T12:16:38;97232.25;;;22.83;17.42
64668;BME280;51077;42.716;23.344;2024-01-30T12:19:03;97242.63;;;23.17;17.26
64668;BME280;51077;42.716;23.344;2024-01-30T12:21:29;97233.09;;;23.49;17.01
64668;BME280;51077;42.716;23.344;2024-01-30T12:23:59;97226.34;;;23.80;16.96
64668;BME280;51077;42.716;23.344;2024-01-30T12:26:24;97228.69;;;24.05;16.66
64668;BME280;51077;42.716;23.344;2024-01-30T12:28:56;97226.69;;;24.28;16.54
64668;BME280;51077;42.716;23.344;2024-01-30T12:31:31;97229.97;;;24.55;16.33
64668;BME280;51077;42.716;23.344;2024-01-30T12:33:59;97230.16;;;24.80;16.20
64668;BME280;51077;42.716;23.344;2024-01-30T12:36:25;97223.78;;;25.03;16.07
64668;BME280;51077;42.716;23.344;2024-01-30T12:38:50;97218.56;;;25.22;16.12
64668;BME280;51077;42.716;23.344;2024-01-30T12:41:16;97216.06;;;25.42;15.91
64668;BME280;51077;42.716;23.344;2024-01-30T12:43:42;97218.66;;;25.55;15.64
64668;BME280;51077;42.716;23.344;2024-01-30T12:46:08;97217.66;;;25.68;15.47
64668;BME280;51077;42.716;23.344;2024-01-30T12:48:34;97211.84;;;25.81;15.65
64668;BME280;51077;42.716;23.344;2024-01-30T12:50:59;97217.63;;;25.91;15.27
64668;BME280;51077;42.716;23.344;2024-01-30T12:53:25;97215.72;;;25.93;15.30
64668;BME280;51077;42.716;23.344;2024-01-30T12:55:50;97208.22;;;25.96;15.13